Nanticoke, Canada
Current Conditions -  °F | °C
As of 1:00 PM on Thursday 23 Oct 2014 (Local Time) from CYHM Reporting Station
Clear Clear  
Wind Chill: 59°   Ceiling: Unl
Heat Index: 59°   Visibility: 15mi
Dew Point: 41°   Wind: 8mph
Humidity: 51%   Direction: 350°N
Pressure: 30.12"   Gusts: NA
Location:  42.81°N, 80.07°W
Report Text: CYHM 231700Z 35007KT 330V050 15SM SKC 15/05 A3012 RMK SLP203
Loading
Personal Weather Stations






























Interactive Weather Map
Tropical Storm Tracking
New forecast layout! Learn more

10-Day Weather Forecast

Advertisements
Track Severe Weather on mobile